sensor_id;sensor_type;location;lat;lon;timestamp;temperature;humidity
13521;DHT22;6832;51.186;3.236;2023-02-23T00:00:24;15.60;64.60
13521;DHT22;6832;51.186;3.236;2023-02-23T00:02:55;15.50;64.50
13521;DHT22;6832;51.186;3.236;2023-02-23T00:05:25;15.60;64.60
13521;DHT22;6832;51.186;3.236;2023-02-23T00:07:53;15.60;65.40
13521;DHT22;6832;51.186;3.236;2023-02-23T00:10:20;15.50;64.50
13521;DHT22;6832;51.186;3.236;2023-02-23T00:12:51;15.50;64.50
13521;DHT22;6832;51.186;3.236;2023-02-23T00:15:18;15.60;64.60
13521;DHT22;6832;51.186;3.236;2023-02-23T00:17:45;15.60;64.60
13521;DHT22;6832;51.186;3.236;2023-02-23T00:20:14;15.50;64.50
13521;DHT22;6832;51.186;3.236;2023-02-23T00:22:41;15.60;64.60
13521;DHT22;6832;51.186;3.236;2023-02-23T00:25:09;15.50;64.50
13521;DHT22;6832;51.186;3.236;2023-02-23T00:27:37;15.50;64.50
13521;DHT22;6832;51.186;3.236;2023-02-23T00:30:10;15.60;64.60
13521;DHT22;6832;51.186;3.236;2023-02-23T00:32:38;15.50;64.50
13521;DHT22;6832;51.186;3.236;2023-02-23T00:35:06;15.60;64.60
13521;DHT22;6832;51.186;3.236;2023-02-23T00:37:37;15.50;64.50
13521;DHT22;6832;51.186;3.236;2023-02-23T00:40:08;15.50;64.40
13521;DHT22;6832;51.186;3.236;2023-02-23T00:42:39;15.50;64.40
13521;DHT22;6832;51.186;3.236;2023-02-23T00:45:07;15.50;64.40
13521;DHT22;6832;51.186;3.236;2023-02-23T00:47:37;15.50;64.40
13521;DHT22;6832;51.186;3.236;2023-02-23T00:50:05;15.50;64.40
13521;DHT22;6832;51.186;3.236;2023-02-23T00:52:33;15.50;64.40
13521;DHT22;6832;51.186;3.236;2023-02-23T00:55:01;15.50;64.30
13521;DHT22;6832;51.186;3.236;2023-02-23T00:57:28;15.50;64.40
13521;DHT22;6832;51.186;3.236;2023-02-23T00:59:55;15.50;64.40
13521;DHT22;6832;51.186;3.236;2023-02-23T01:02:22;15.50;64.40
13521;DHT22;6832;51.186;3.236;2023-02-23T01:04:49;15.50;64.40
13521;DHT22;6832;51.186;3.236;2023-02-23T01:07:16;15.50;64.40
13521;DHT22;6832;51.186;3.236;2023-02-23T01:09:43;15.50;64.40
13521;DHT22;6832;51.186;3.236;2023-02-23T01:12:13;15.50;64.40
13521;DHT22;6832;51.186;3.236;2023-02-23T01:14:41;15.50;64.40
13521;DHT22;6832;51.186;3.236;2023-02-23T01:17:08;15.50;64.40
13521;DHT22;6832;51.186;3.236;2023-02-23T01:19:35;15.50;64.30
13521;DHT22;6832;51.186;3.236;2023-02-23T01:22:02;15.40;64.20
13521;DHT22;6832;51.186;3.236;2023-02-23T01:24:28;15.50;64.40
13521;DHT22;6832;51.186;3.236;2023-02-23T01:26:55;15.50;64.40
13521;DHT22;6832;51.186;3.236;2023-02-23T01:29:24;15.50;64.40
13521;DHT22;6832;51.186;3.236;2023-02-23T01:31:50;15.50;64.40
13521;DHT22;6832;51.186;3.236;2023-02-23T01:34:19;15.50;64.40
13521;DHT22;6832;51.186;3.236;2023-02-23T01:36:47;15.40;64.20
13521;DHT22;6832;51.186;3.236;2023-02-23T01:39:15;15.50;64.40
13521;DHT22;6832;51.186;3.236;2023-02-23T01:41:43;15.40;64.30
13521;DHT22;6832;51.186;3.236;2023-02-23T01:47:12;15.50;64.40
13521;DHT22;6832;51.186;3.236;2023-02-23T01:49:39;15.50;64.30
13521;DHT22;6832;51.186;3.236;2023-02-23T01:52:08;15.50;64.40
13521;DHT22;6832;51.186;3.236;2023-02-23T01:54:38;15.50;64.40
13521;DHT22;6832;51.186;3.236;2023-02-23T01:57:06;15.40;64.20
13521;DHT22;6832;51.186;3.236;2023-02-23T01:59:38;15.50;64.40
13521;DHT22;6832;51.186;3.236;2023-02-23T02:02:05;15.40;64.30
13521;DHT22;6832;51.186;3.236;2023-02-23T02:04:36;15.50;64.40
13521;DHT22;6832;51.186;3.236;2023-02-23T02:07:09;15.50;64.40
13521;DHT22;6832;51.186;3.236;2023-02-23T02:09:36;15.50;64.40
13521;DHT22;6832;51.186;3.236;2023-02-23T02:12:07;15.50;65.20
13521;DHT22;6832;51.186;3.236;2023-02-23T02:14:36;15.50;64.40
13521;DHT22;6832;51.186;3.236;2023-02-23T02:17:14;15.50;64.40
13521;DHT22;6832;51.186;3.236;2023-02-23T02:26:14;15.40;64.20
13521;DHT22;6832;51.186;3.236;2023-02-23T02:32:34;15.50;64.40
13521;DHT22;6832;51.186;3.236;2023-02-23T02:35:35;15.40;64.20
13521;DHT22;6832;51.186;3.236;2023-02-23T02:38:11;15.40;64.20
13521;DHT22;6832;51.186;3.236;2023-02-23T02:40:44;15.50;64.40
13521;DHT22;6832;51.186;3.236;2023-02-23T02:43:24;15.40;64.20
13521;DHT22;6832;51.186;3.236;2023-02-23T02:45:55;15.40;64.20
13521;DHT22;6832;51.186;3.236;2023-02-23T02:48:28;15.50;64.40
13521;DHT22;6832;51.186;3.236;2023-02-23T02:51:04;15.50;64.40
13521;DHT22;6832;51.186;3.236;2023-02-23T02:53:39;15.50;64.40
13521;DHT22;6832;51.186;3.236;2023-02-23T02:56:07;15.40;64.20
13521;DHT22;6832;51.186;3.236;2023-02-23T02:58:36;15.40;64.20
13521;DHT22;6832;51.186;3.236;2023-02-23T03:01:11;15.50;64.30
13521;DHT22;6832;51.186;3.236;2023-02-23T03:03:56;15.50;64.40
13521;DHT22;6832;51.186;3.236;2023-02-23T03:06:45;15.50;64.30
13521;DHT22;6832;51.186;3.236;2023-02-23T03:09:37;15.50;64.30
13521;DHT22;6832;51.186;3.236;2023-02-23T03:12:28;15.40;64.20
13521;DHT22;6832;51.186;3.236;2023-02-23T03:15:28;15.40;64.30
13521;DHT22;6832;51.186;3.236;2023-02-23T03:18:33;15.40;64.20
13521;DHT22;6832;51.186;3.236;2023-02-23T03:21:25;15.40;64.20
13521;DHT22;6832;51.186;3.236;2023-02-23T03:24:17;15.50;64.40
13521;DHT22;6832;51.186;3.236;2023-02-23T03:27:14;15.30;64.20
13521;DHT22;6832;51.186;3.236;2023-02-23T03:30:05;15.40;64.30
13521;DHT22;6832;51.186;3.236;2023-02-23T03:32:59;15.40;64.30
13521;DHT22;6832;51.186;3.236;2023-02-23T03:35:48;15.40;64.30
13521;DHT22;6832;51.186;3.236;2023-02-23T03:38:37;15.40;65.10
13521;DHT22;6832;51.186;3.236;2023-02-23T03:41:26;15.40;64.40
13521;DHT22;6832;51.186;3.236;2023-02-23T03:44:17;15.40;64.30
13521;DHT22;6832;51.186;3.236;2023-02-23T03:47:05;15.40;64.40
13521;DHT22;6832;51.186;3.236;2023-02-23T03:49:53;15.40;64.40
13521;DHT22;6832;51.186;3.236;2023-02-23T03:52:41;15.30;64.20
13521;DHT22;6832;51.186;3.236;2023-02-23T03:55:31;15.40;64.40
13521;DHT22;6832;51.186;3.236;2023-02-23T03:58:22;15.40;64.40
13521;DHT22;6832;51.186;3.236;2023-02-23T04:01:10;15.40;64.30
13521;DHT22;6832;51.186;3.236;2023-02-23T04:03:57;15.40;64.40
13521;DHT22;6832;51.186;3.236;2023-02-23T04:06:46;15.40;64.40
13521;DHT22;6832;51.186;3.236;2023-02-23T04:09:31;15.40;64.40
13521;DHT22;6832;51.186;3.236;2023-02-23T04:12:20;15.30;64.30
13521;DHT22;6832;51.186;3.236;2023-02-23T04:15:09;15.40;64.40
13521;DHT22;6832;51.186;3.236;2023-02-23T04:17:37;15.40;64.40
13521;DHT22;6832;51.186;3.236;2023-02-23T04:20:06;15.30;64.30
13521;DHT22;6832;51.186;3.236;2023-02-23T04:22:34;15.30;64.40
13521;DHT22;6832;51.186;3.236;2023-02-23T04:25:01;15.40;64.50
13521;DHT22;6832;51.186;3.236;2023-02-23T04:27:28;15.40;64.40
13521;DHT22;6832;51.186;3.236;2023-02-23T04:29:54;15.30;64.40
13521;DHT22;6832;51.186;3.236;2023-02-23T04:32:21;15.30;64.40
13521;DHT22;6832;51.186;3.236;2023-02-23T04:34:50;15.40;64.50
13521;DHT22;6832;51.186;3.236;2023-02-23T04:37:16;15.40;64.40
13521;DHT22;6832;51.186;3.236;2023-02-23T04:39:43;15.40;64.40
13521;DHT22;6832;51.186;3.236;2023-02-23T04:42:14;15.40;64.40
13521;DHT22;6832;51.186;3.236;2023-02-23T04:44:41;15.20;64.30
13521;DHT22;6832;51.186;3.236;2023-02-23T04:47:09;15.30;64.30
13521;DHT22;6832;51.186;3.236;2023-02-23T04:49:35;15.40;64.40
13521;DHT22;6832;51.186;3.236;2023-02-23T04:52:04;15.40;64.50
13521;DHT22;6832;51.186;3.236;2023-02-23T04:54:31;15.40;64.50
13521;DHT22;6832;51.186;3.236;2023-02-23T04:56:58;15.40;64.50
13521;DHT22;6832;51.186;3.236;2023-02-23T04:59:25;15.30;64.40
13521;DHT22;6832;51.186;3.236;2023-02-23T05:01:53;15.40;64.50
13521;DHT22;6832;51.186;3.236;2023-02-23T05:04:20;15.40;64.50
13521;DHT22;6832;51.186;3.236;2023-02-23T05:06:47;15.30;64.30
13521;DHT22;6832;51.186;3.236;2023-02-23T05:09:15;15.40;64.40
13521;DHT22;6832;51.186;3.236;2023-02-23T05:11:42;15.40;64.50
13521;DHT22;6832;51.186;3.236;2023-02-23T05:14:09;15.30;64.40
13521;DHT22;6832;51.186;3.236;2023-02-23T05:16:37;15.30;64.40
13521;DHT22;6832;51.186;3.236;2023-02-23T05:19:06;15.40;64.50
13521;DHT22;6832;51.186;3.236;2023-02-23T05:21:33;15.40;64.50
13521;DHT22;6832;51.186;3.236;2023-02-23T05:24:00;15.40;64.50
13521;DHT22;6832;51.186;3.236;2023-02-23T05:26:28;15.40;64.40
13521;DHT22;6832;51.186;3.236;2023-02-23T05:28:55;15.40;64.40
13521;DHT22;6832;51.186;3.236;2023-02-23T05:31:22;15.40;64.40
13521;DHT22;6832;51.186;3.236;2023-02-23T05:33:51;15.40;64.50
13521;DHT22;6832;51.186;3.236;2023-02-23T05:36:19;15.40;64.50
13521;DHT22;6832;51.186;3.236;2023-02-23T05:38:47;15.40;64.40
13521;DHT22;6832;51.186;3.236;2023-02-23T05:41:15;15.40;64.40
13521;DHT22;6832;51.186;3.236;2023-02-23T05:43:44;15.40;64.40
13521;DHT22;6832;51.186;3.236;2023-02-23T05:46:14;15.40;64.40
13521;DHT22;6832;51.186;3.236;2023-02-23T05:48:43;15.40;64.40
13521;DHT22;6832;51.186;3.236;2023-02-23T05:51:12;15.40;64.40
13521;DHT22;6832;51.186;3.236;2023-02-23T05:53:40;15.40;64.40
13521;DHT22;6832;51.186;3.236;2023-02-23T05:56:10;15.40;64.40
13521;DHT22;6832;51.186;3.236;2023-02-23T05:58:38;15.40;64.40
13521;DHT22;6832;51.186;3.236;2023-02-23T06:01:06;15.40;64.40
13521;DHT22;6832;51.186;3.236;2023-02-23T06:03:33;15.40;64.40
13521;DHT22;6832;51.186;3.236;2023-02-23T06:06:00;15.40;64.40
13521;DHT22;6832;51.186;3.236;2023-02-23T06:08:27;15.30;64.30
13521;DHT22;6832;51.186;3.236;2023-02-23T06:10:53;15.40;64.40
13521;DHT22;6832;51.186;3.236;2023-02-23T06:13:21;15.40;64.40
13521;DHT22;6832;51.186;3.236;2023-02-23T06:15:48;15.40;64.40
13521;DHT22;6832;51.186;3.236;2023-02-23T06:18:19;15.40;64.40
13521;DHT22;6832;51.186;3.236;2023-02-23T06:20:47;15.40;64.40
13521;DHT22;6832;51.186;3.236;2023-02-23T06:23:13;15.30;64.30
13521;DHT22;6832;51.186;3.236;2023-02-23T06:25:41;15.40;64.40
13521;DHT22;6832;51.186;3.236;2023-02-23T06:28:08;15.40;64.40
13521;DHT22;6832;51.186;3.236;2023-02-23T06:30:36;15.40;64.40
13521;DHT22;6832;51.186;3.236;2023-02-23T06:33:05;15.50;64.60
13521;DHT22;6832;51.186;3.236;2023-02-23T06:35:34;15.50;64.50
13521;DHT22;6832;51.186;3.236;2023-02-23T06:38:01;15.40;64.40
13521;DHT22;6832;51.186;3.236;2023-02-23T06:40:29;15.40;64.40
13521;DHT22;6832;51.186;3.236;2023-02-23T06:42:55;15.40;64.40
13521;DHT22;6832;51.186;3.236;2023-02-23T06:45:22;15.40;64.40
13521;DHT22;6832;51.186;3.236;2023-02-23T06:47:49;15.30;64.30
13521;DHT22;6832;51.186;3.236;2023-02-23T06:50:18;15.40;64.40
13521;DHT22;6832;51.186;3.236;2023-02-23T06:52:46;15.40;64.40
13521;DHT22;6832;51.186;3.236;2023-02-23T06:55:14;15.30;64.30
13521;DHT22;6832;51.186;3.236;2023-02-23T06:57:41;15.50;64.50
13521;DHT22;6832;51.186;3.236;2023-02-23T07:00:10;15.30;64.30
13521;DHT22;6832;51.186;3.236;2023-02-23T07:02:39;15.40;64.40
13521;DHT22;6832;51.186;3.236;2023-02-23T07:05:07;15.40;64.50
13521;DHT22;6832;51.186;3.236;2023-02-23T07:07:34;15.40;64.40
13521;DHT22;6832;51.186;3.236;2023-02-23T07:10:03;15.30;64.30
13521;DHT22;6832;51.186;3.236;2023-02-23T07:12:30;15.40;64.40
13521;DHT22;6832;51.186;3.236;2023-02-23T07:14:57;15.30;64.30
13521;DHT22;6832;51.186;3.236;2023-02-23T07:17:25;15.40;64.50
13521;DHT22;6832;51.186;3.236;2023-02-23T07:19:52;15.40;64.50
13521;DHT22;6832;51.186;3.236;2023-02-23T07:22:19;15.30;64.30
13521;DHT22;6832;51.186;3.236;2023-02-23T07:24:46;15.40;64.40
13521;DHT22;6832;51.186;3.236;2023-02-23T07:27:15;15.40;64.50
13521;DHT22;6832;51.186;3.236;2023-02-23T07:29:42;15.30;64.30
13521;DHT22;6832;51.186;3.236;2023-02-23T07:32:08;15.40;64.50
13521;DHT22;6832;51.186;3.236;2023-02-23T07:34:36;15.40;64.50
13521;DHT22;6832;51.186;3.236;2023-02-23T07:37:05;15.40;64.50
13521;DHT22;6832;51.186;3.236;2023-02-23T07:39:32;15.40;64.50
13521;DHT22;6832;51.186;3.236;2023-02-23T07:41:59;15.30;64.50
13521;DHT22;6832;51.186;3.236;2023-02-23T07:44:27;15.40;64.50
13521;DHT22;6832;51.186;3.236;2023-02-23T07:46:54;15.30;64.50
13521;DHT22;6832;51.186;3.236;2023-02-23T07:49:22;15.30;64.40
13521;DHT22;6832;51.186;3.236;2023-02-23T07:51:49;15.40;64.60
13521;DHT22;6832;51.186;3.236;2023-02-23T07:54:16;15.40;64.60
13521;DHT22;6832;51.186;3.236;2023-02-23T07:56:43;15.40;64.70
13521;DHT22;6832;51.186;3.236;2023-02-23T07:59:10;15.40;64.70
13521;DHT22;6832;51.186;3.236;2023-02-23T08:01:40;15.40;64.70
13521;DHT22;6832;51.186;3.236;2023-02-23T08:04:06;15.40;64.70
13521;DHT22;6832;51.186;3.236;2023-02-23T08:06:33;15.40;64.70
13521;DHT22;6832;51.186;3.236;2023-02-23T08:09:02;15.40;64.70
13521;DHT22;6832;51.186;3.236;2023-02-23T08:11:29;15.40;64.80
13521;DHT22;6832;51.186;3.236;2023-02-23T08:13:56;15.40;64.80
13521;DHT22;6832;51.186;3.236;2023-02-23T08:16:25;15.40;64.80
13521;DHT22;6832;51.186;3.236;2023-02-23T08:18:55;15.40;64.80
13521;DHT22;6832;51.186;3.236;2023-02-23T08:21:23;15.40;64.80
13521;DHT22;6832;51.186;3.236;2023-02-23T08:23:50;15.40;64.80
13521;DHT22;6832;51.186;3.236;2023-02-23T08:26:17;15.40;64.80
13521;DHT22;6832;51.186;3.236;2023-02-23T08:28:56;15.40;64.80
13521;DHT22;6832;51.186;3.236;2023-02-23T08:31:23;15.40;64.80
13521;DHT22;6832;51.186;3.236;2023-02-23T08:33:53;15.40;64.80
13521;DHT22;6832;51.186;3.236;2023-02-23T08:36:20;15.50;64.90
13521;DHT22;6832;51.186;3.236;2023-02-23T08:38:47;15.40;64.80
13521;DHT22;6832;51.186;3.236;2023-02-23T08:41:14;15.40;64.80
13521;DHT22;6832;51.186;3.236;2023-02-23T08:43:42;15.50;65.70
13521;DHT22;6832;51.186;3.236;2023-02-23T08:46:15;15.50;64.90
13521;DHT22;6832;51.186;3.236;2023-02-23T08:48:44;15.50;64.90
13521;DHT22;6832;51.186;3.236;2023-02-23T08:51:13;15.50;64.90
13521;DHT22;6832;51.186;3.236;2023-02-23T08:53:40;15.50;64.90
13521;DHT22;6832;51.186;3.236;2023-02-23T08:56:07;15.50;64.90
13521;DHT22;6832;51.186;3.236;2023-02-23T08:58:35;15.40;64.80
13521;DHT22;6832;51.186;3.236;2023-02-23T09:01:02;15.50;64.90
13521;DHT22;6832;51.186;3.236;2023-02-23T09:03:30;15.50;64.90
13521;DHT22;6832;51.186;3.236;2023-02-23T09:06:03;15.50;64.90
13521;DHT22;6832;51.186;3.236;2023-02-23T09:08:32;15.40;64.90
13521;DHT22;6832;51.186;3.236;2023-02-23T09:10:59;15.50;64.90
13521;DHT22;6832;51.186;3.236;2023-02-23T09:13:26;15.50;64.90
13521;DHT22;6832;51.186;3.236;2023-02-23T09:15:53;15.50;65.00
13521;DHT22;6832;51.186;3.236;2023-02-23T09:18:20;15.50;64.90
13521;DHT22;6832;51.186;3.236;2023-02-23T09:20:49;15.50;64.90
13521;DHT22;6832;51.186;3.236;2023-02-23T09:23:15;15.50;64.90
13521;DHT22;6832;51.186;3.236;2023-02-23T09:25:45;15.50;64.90
13521;DHT22;6832;51.186;3.236;2023-02-23T09:28:13;15.50;64.90
13521;DHT22;6832;51.186;3.236;2023-02-23T09:30:40;15.60;65.00
13521;DHT22;6832;51.186;3.236;2023-02-23T09:33:10;15.60;65.00
13521;DHT22;6832;51.186;3.236;2023-02-23T09:35:37;15.60;65.00
13521;DHT22;6832;51.186;3.236;2023-02-23T09:38:06;15.60;65.00
13521;DHT22;6832;51.186;3.236;2023-02-23T09:40:42;15.50;64.90
13521;DHT22;6832;51.186;3.236;2023-02-23T09:43:14;15.50;64.90
13521;DHT22;6832;51.186;3.236;2023-02-23T09:45:45;15.50;64.90
13521;DHT22;6832;51.186;3.236;2023-02-23T09:48:15;15.70;65.10
13521;DHT22;6832;51.186;3.236;2023-02-23T09:50:46;15.60;65.00
13521;DHT22;6832;51.186;3.236;2023-02-23T09:53:24;15.60;65.00
13521;DHT22;6832;51.186;3.236;2023-02-23T09:55:53;15.50;64.90
13521;DHT22;6832;51.186;3.236;2023-02-23T09:58:23;15.60;65.00
13521;DHT22;6832;51.186;3.236;2023-02-23T10:03:52;15.60;65.00
13521;DHT22;6832;51.186;3.236;2023-02-23T10:06:22;15.60;65.00
13521;DHT22;6832;51.186;3.236;2023-02-23T10:09:00;15.60;65.00
13521;DHT22;6832;51.186;3.236;2023-02-23T10:11:33;15.60;65.00
13521;DHT22;6832;51.186;3.236;2023-02-23T10:14:15;15.60;65.00
13521;DHT22;6832;51.186;3.236;2023-02-23T10:16:55;15.60;65.00
13521;DHT22;6832;51.186;3.236;2023-02-23T10:19:31;15.70;65.10
13521;DHT22;6832;51.186;3.236;2023-02-23T10:22:03;15.70;65.10
13521;DHT22;6832;51.186;3.236;2023-02-23T10:24:35;15.70;65.10
13521;DHT22;6832;51.186;3.236;2023-02-23T10:27:07;15.60;65.00
13521;DHT22;6832;51.186;3.236;2023-02-23T10:29:40;15.70;65.10
13521;DHT22;6832;51.186;3.236;2023-02-23T10:32:17;15.70;65.10
13521;DHT22;6832;51.186;3.236;2023-02-23T10:34:47;15.70;65.10
13521;DHT22;6832;51.186;3.236;2023-02-23T10:37:16;15.70;65.10
13521;DHT22;6832;51.186;3.236;2023-02-23T10:39:43;15.70;65.10
13521;DHT22;6832;51.186;3.236;2023-02-23T10:42:14;15.70;65.10
13521;DHT22;6832;51.186;3.236;2023-02-23T10:44:44;15.70;65.20
13521;DHT22;6832;51.186;3.236;2023-02-23T10:47:14;15.70;65.10
13521;DHT22;6832;51.186;3.236;2023-02-23T10:49:44;15.70;65.10
13521;DHT22;6832;51.186;3.236;2023-02-23T10:52:14;15.70;65.10
13521;DHT22;6832;51.186;3.236;2023-02-23T10:54:47;15.70;65.10
13521;DHT22;6832;51.186;3.236;2023-02-23T10:57:23;15.70;65.10
13521;DHT22;6832;51.186;3.236;2023-02-23T11:00:10;15.80;65.20
13521;DHT22;6832;51.186;3.236;2023-02-23T11:02:46;15.80;65.20
13521;DHT22;6832;51.186;3.236;2023-02-23T11:05:42;15.70;65.10
13521;DHT22;6832;51.186;3.236;2023-02-23T11:08:26;15.80;65.20
13521;DHT22;6832;51.186;3.236;2023-02-23T11:11:19;15.70;65.20
13521;DHT22;6832;51.186;3.236;2023-02-23T11:13:51;15.80;65.20
13521;DHT22;6832;51.186;3.236;2023-02-23T11:16:21;15.80;65.20
13521;DHT22;6832;51.186;3.236;2023-02-23T11:18:51;15.70;65.10
13521;DHT22;6832;51.186;3.236;2023-02-23T11:21:23;15.80;65.20
13521;DHT22;6832;51.186;3.236;2023-02-23T11:23:54;15.80;65.20
13521;DHT22;6832;51.186;3.236;2023-02-23T11:26:36;15.80;65.20
13521;DHT22;6832;51.186;3.236;2023-02-23T11:29:13;15.80;65.30
13521;DHT22;6832;51.186;3.236;2023-02-23T11:32:12;15.80;65.20
13521;DHT22;6832;51.186;3.236;2023-02-23T11:34:39;15.80;65.20
13521;DHT22;6832;51.186;3.236;2023-02-23T11:37:20;15.80;65.20
13521;DHT22;6832;51.186;3.236;2023-02-23T11:39:52;15.80;65.20
13521;DHT22;6832;51.186;3.236;2023-02-23T11:42:21;15.80;65.20
13521;DHT22;6832;51.186;3.236;2023-02-23T11:44:51;15.80;65.20
13521;DHT22;6832;51.186;3.236;2023-02-23T11:47:21;15.80;65.20
13521;DHT22;6832;51.186;3.236;2023-02-23T11:49:49;15.80;65.20
13521;DHT22;6832;51.186;3.236;2023-02-23T11:52:18;15.80;65.20
13521;DHT22;6832;51.186;3.236;2023-02-23T11:54:52;15.90;65.30
13521;DHT22;6832;51.186;3.236;2023-02-23T11:57:21;15.90;65.30
13521;DHT22;6832;51.186;3.236;2023-02-23T11:59:49;15.90;65.30
13521;DHT22;6832;51.186;3.236;2023-02-23T12:02:22;15.90;65.30
13521;DHT22;6832;51.186;3.236;2023-02-23T12:04:51;15.90;65.30
13521;DHT22;6832;51.186;3.236;2023-02-23T12:07:29;15.90;65.30
13521;DHT22;6832;51.186;3.236;2023-02-23T12:10:11;15.90;65.40
13521;DHT22;6832;51.186;3.236;2023-02-23T12:12:52;15.90;65.40
13521;DHT22;6832;51.186;3.236;2023-02-23T12:15:26;15.90;65.40
13521;DHT22;6832;51.186;3.236;2023-02-23T12:18:01;15.90;65.40
13521;DHT22;6832;51.186;3.236;2023-02-23T12:20:31;15.90;65.30
13521;DHT22;6832;51.186;3.236;2023-02-23T12:23:05;15.90;65.30
13521;DHT22;6832;51.186;3.236;2023-02-23T12:25:35;15.90;65.20
13521;DHT22;6832;51.186;3.236;2023-02-23T12:28:11;15.90;65.30
13521;DHT22;6832;51.186;3.236;2023-02-23T12:30:44;15.90;65.30
13521;DHT22;6832;51.186;3.236;2023-02-23T12:33:16;15.90;65.30
13521;DHT22;6832;51.186;3.236;2023-02-23T12:35:49;16.00;65.40
13521;DHT22;6832;51.186;3.236;2023-02-23T12:38:23;15.90;65.30
13521;DHT22;6832;51.186;3.236;2023-02-23T12:40:58;15.90;66.10
13521;DHT22;6832;51.186;3.236;2023-02-23T12:43:32;15.90;65.20
13521;DHT22;6832;51.186;3.236;2023-02-23T12:49:29;15.90;65.30
13521;DHT22;6832;51.186;3.236;2023-02-23T12:52:01;15.90;65.20
13521;DHT22;6832;51.186;3.236;2023-02-23T12:54:35;16.10;65.50
13521;DHT22;6832;51.186;3.236;2023-02-23T12:57:10;15.90;65.20
13521;DHT22;6832;51.186;3.236;2023-02-23T13:00:16;15.90;65.20
13521;DHT22;6832;51.186;3.236;2023-02-23T13:05:55;16.00;65.40
13521;DHT22;6832;51.186;3.236;2023-02-23T13:08:33;16.00;65.40
13521;DHT22;6832;51.186;3.236;2023-02-23T13:11:15;16.00;65.40
13521;DHT22;6832;51.186;3.236;2023-02-23T13:13:46;15.90;65.20
13521;DHT22;6832;51.186;3.236;2023-02-23T13:16:20;16.00;65.40
13521;DHT22;6832;51.186;3.236;2023-02-23T13:18:55;16.00;65.40
13521;DHT22;6832;51.186;3.236;2023-02-23T13:21:31;16.00;65.40
13521;DHT22;6832;51.186;3.236;2023-02-23T13:24:01;16.00;65.40
13521;DHT22;6832;51.186;3.236;2023-02-23T13:26:37;16.00;65.40
13521;DHT22;6832;51.186;3.236;2023-02-23T13:29:15;16.00;65.50
13521;DHT22;6832;51.186;3.236;2023-02-23T13:31:51;16.00;65.50
13521;DHT22;6832;51.186;3.236;2023-02-23T13:34:23;15.90;66.10
13521;DHT22;6832;51.186;3.236;2023-02-23T13:36:53;16.10;65.50
13521;DHT22;6832;51.186;3.236;2023-02-23T13:39:42;16.00;65.40
13521;DHT22;6832;51.186;3.236;2023-02-23T13:42:31;16.00;65.50
13521;DHT22;6832;51.186;3.236;2023-02-23T13:45:18;16.00;65.50
13521;DHT22;6832;51.186;3.236;2023-02-23T13:47:52;16.00;65.50
13521;DHT22;6832;51.186;3.236;2023-02-23T13:50:26;16.00;65.40
13521;DHT22;6832;51.186;3.236;2023-02-23T13:53:04;16.00;65.50
13521;DHT22;6832;51.186;3.236;2023-02-23T13:55:49;16.00;65.50
13521;DHT22;6832;51.186;3.236;2023-02-23T13:58:21;16.00;65.50
13521;DHT22;6832;51.186;3.236;2023-02-23T14:01:03;16.00;65.50
13521;DHT22;6832;51.186;3.236;2023-02-23T14:03:38;16.10;65.60
13521;DHT22;6832;51.186;3.236;2023-02-23T14:06:06;16.00;65.50
13521;DHT22;6832;51.186;3.236;2023-02-23T14:08:40;16.10;65.60
13521;DHT22;6832;51.186;3.236;2023-02-23T14:11:08;16.10;65.60
13521;DHT22;6832;51.186;3.236;2023-02-23T14:13:39;16.10;65.70
13521;DHT22;6832;51.186;3.236;2023-02-23T14:16:15;16.10;65.60
13521;DHT22;6832;51.186;3.236;2023-02-23T14:19:10;16.10;65.70
13521;DHT22;6832;51.186;3.236;2023-02-23T14:21:44;16.10;65.70
13521;DHT22;6832;51.186;3.236;2023-02-23T14:24:18;16.10;65.60
13521;DHT22;6832;51.186;3.236;2023-02-23T14:27:10;16.10;65.60
13521;DHT22;6832;51.186;3.236;2023-02-23T14:30:06;16.10;65.70
13521;DHT22;6832;51.186;3.236;2023-02-23T14:32:39;16.10;65.60
13521;DHT22;6832;51.186;3.236;2023-02-23T14:35:37;16.10;65.60
13521;DHT22;6832;51.186;3.236;2023-02-23T14:38:14;16.10;65.70
13521;DHT22;6832;51.186;3.236;2023-02-23T14:40:45;16.20;65.70
13521;DHT22;6832;51.186;3.236;2023-02-23T14:43:53;16.10;65.60
13521;DHT22;6832;51.186;3.236;2023-02-23T14:46:23;16.10;65.60
13521;DHT22;6832;51.186;3.236;2023-02-23T14:49:01;16.20;65.70
13521;DHT22;6832;51.186;3.236;2023-02-23T14:51:40;16.10;65.60
13521;DHT22;6832;51.186;3.236;2023-02-23T14:54:11;16.10;65.70
13521;DHT22;6832;51.186;3.236;2023-02-23T14:56:50;16.20;65.70
13521;DHT22;6832;51.186;3.236;2023-02-23T14:59:25;16.20;65.80
13521;DHT22;6832;51.186;3.236;2023-02-23T15:01:53;16.20;65.70
13521;DHT22;6832;51.186;3.236;2023-02-23T15:04:26;16.20;65.70
13521;DHT22;6832;51.186;3.236;2023-02-23T15:06:56;16.10;65.60
13521;DHT22;6832;51.186;3.236;2023-02-23T15:09:37;16.10;65.60
13521;DHT22;6832;51.186;3.236;2023-02-23T15:12:19;16.20;65.80
13521;DHT22;6832;51.186;3.236;2023-02-23T15:14:55;16.20;65.70
13521;DHT22;6832;51.186;3.236;2023-02-23T15:17:25;16.20;65.70
13521;DHT22;6832;51.186;3.236;2023-02-23T15:19:58;16.10;65.60
13521;DHT22;6832;51.186;3.236;2023-02-23T15:22:27;16.20;65.80
13521;DHT22;6832;51.186;3.236;2023-02-23T15:24:57;16.20;65.80
13521;DHT22;6832;51.186;3.236;2023-02-23T15:27:38;16.20;65.80
13521;DHT22;6832;51.186;3.236;2023-02-23T15:30:44;16.20;65.80
13521;DHT22;6832;51.186;3.236;2023-02-23T15:33:13;16.20;65.80
13521;DHT22;6832;51.186;3.236;2023-02-23T15:35:44;16.20;65.70
13521;DHT22;6832;51.186;3.236;2023-02-23T15:38:15;16.20;65.70
13521;DHT22;6832;51.186;3.236;2023-02-23T15:40:57;16.20;65.70
13521;DHT22;6832;51.186;3.236;2023-02-23T15:43:39;16.20;65.80
13521;DHT22;6832;51.186;3.236;2023-02-23T15:46:08;16.20;65.70
13521;DHT22;6832;51.186;3.236;2023-02-23T15:48:43;16.30;65.80
13521;DHT22;6832;51.186;3.236;2023-02-23T15:51:31;16.20;65.70
13521;DHT22;6832;51.186;3.236;2023-02-23T15:54:08;16.30;65.80
13521;DHT22;6832;51.186;3.236;2023-02-23T15:56:41;16.30;65.80
13521;DHT22;6832;51.186;3.236;2023-02-23T15:59:17;16.20;66.40
13521;DHT22;6832;51.186;3.236;2023-02-23T16:01:53;16.20;65.60
13521;DHT22;6832;51.186;3.236;2023-02-23T16:04:41;16.30;65.70
13521;DHT22;6832;51.186;3.236;2023-02-23T16:07:18;16.30;65.70
13521;DHT22;6832;51.186;3.236;2023-02-23T16:09:50;16.30;65.70
13521;DHT22;6832;51.186;3.236;2023-02-23T16:12:24;16.40;65.80
13521;DHT22;6832;51.186;3.236;2023-02-23T16:15:00;16.30;65.70
13521;DHT22;6832;51.186;3.236;2023-02-23T16:17:38;16.40;65.70
13521;DHT22;6832;51.186;3.236;2023-02-23T16:20:14;16.30;65.70
13521;DHT22;6832;51.186;3.236;2023-02-23T16:22:43;16.30;65.70
13521;DHT22;6832;51.186;3.236;2023-02-23T16:25:13;16.30;65.60
13521;DHT22;6832;51.186;3.236;2023-02-23T16:27:42;16.30;65.60
13521;DHT22;6832;51.186;3.236;2023-02-23T16:30:20;16.30;65.70
13521;DHT22;6832;51.186;3.236;2023-02-23T16:32:48;16.30;65.60
13521;DHT22;6832;51.186;3.236;2023-02-23T16:35:33;16.30;65.60
13521;DHT22;6832;51.186;3.236;2023-02-23T16:38:08;16.30;65.60
13521;DHT22;6832;51.186;3.236;2023-02-23T16:40:37;16.30;65.60
13521;DHT22;6832;51.186;3.236;2023-02-23T16:43:05;16.30;65.60